Fredericksburg, Virginia
Current Conditions -  °F | °C
As of 1:15 AM on Thursday 23 Oct 2014 (Local Time) from KEZF Reporting Station
Overcast Overcast  
Wind Chill: 12°   Ceiling: 6000
Heat Index: 12°   Visibility: 10mi
Dew Point:   Wind: 16mph
Humidity: 68%   Direction: 310°NW
Pressure: 29.93"   Gusts: 21mph
Location:  38.3°N, 77.46°W
Report Text: KEZF 230515Z AUTO 31014G18KT 10SM OVC060 12/06 A2993 RMK AO2 T01200062
Loading
Personal Weather Stations






























Interactive Weather Map
Tropical Storm Tracking
New forecast layout! Learn more

10-Day Weather Forecast

Advertisements
Track Severe Weather on mobile